sensor_id;sensor_type;location;lat;lon;timestamp;P1;durP1;ratioP1;P2;durP2;ratioP2
19004;SDS011;9635;52.078;8.648;2024-03-25T00:02:15;24.13;;;5.18;;
19004;SDS011;9635;52.078;8.648;2024-03-25T00:07:16;17.95;;;4.40;;
19004;SDS011;9635;52.078;8.648;2024-03-25T00:12:23;23.58;;;4.32;;
19004;SDS011;9635;52.078;8.648;2024-03-25T00:17:24;24.98;;;4.75;;
19004;SDS011;9635;52.078;8.648;2024-03-25T00:22:24;18.80;;;4.72;;
19004;SDS011;9635;52.078;8.648;2024-03-25T00:27:26;13.27;;;4.13;;
19004;SDS011;9635;52.078;8.648;2024-03-25T00:32:26;15.30;;;4.18;;
19004;SDS011;9635;52.078;8.648;2024-03-25T00:37:27;18.35;;;3.42;;
19004;SDS011;9635;52.078;8.648;2024-03-25T00:42:28;14.75;;;4.47;;
19004;SDS011;9635;52.078;8.648;2024-03-25T00:47:29;18.48;;;3.83;;
19004;SDS011;9635;52.078;8.648;2024-03-25T00:52:30;13.38;;;3.72;;
19004;SDS011;9635;52.078;8.648;2024-03-25T00:57:31;15.88;;;5.00;;
19004;SDS011;9635;52.078;8.648;2024-03-25T01:02:33;17.52;;;3.80;;
19004;SDS011;9635;52.078;8.648;2024-03-25T01:07:34;15.90;;;3.83;;
19004;SDS011;9635;52.078;8.648;2024-03-25T01:12:34;20.33;;;4.35;;
19004;SDS011;9635;52.078;8.648;2024-03-25T01:17:38;11.32;;;3.42;;
19004;SDS011;9635;52.078;8.648;2024-03-25T01:22:39;23.20;;;4.13;;
19004;SDS011;9635;52.078;8.648;2024-03-25T01:27:40;13.27;;;4.35;;
19004;SDS011;9635;52.078;8.648;2024-03-25T01:32:40;29.13;;;4.65;;
19004;SDS011;9635;52.078;8.648;2024-03-25T01:37:42;16.33;;;3.55;;
19004;SDS011;9635;52.078;8.648;2024-03-25T01:42:43;16.20;;;2.72;;
19004;SDS011;9635;52.078;8.648;2024-03-25T01:47:56;13.98;;;3.85;;
19004;SDS011;9635;52.078;8.648;2024-03-25T01:52:58;16.27;;;3.60;;
19004;SDS011;9635;52.078;8.648;2024-03-25T01:57:59;23.88;;;4.63;;
19004;SDS011;9635;52.078;8.648;2024-03-25T02:03:00;16.35;;;4.10;;
19004;SDS011;9635;52.078;8.648;2024-03-25T02:08:02;13.50;;;3.95;;
19004;SDS011;9635;52.078;8.648;2024-03-25T02:13:04;19.95;;;4.05;;
19004;SDS011;9635;52.078;8.648;2024-03-25T02:18:05;20.40;;;4.55;;
19004;SDS011;9635;52.078;8.648;2024-03-25T02:23:06;42.88;;;5.72;;
19004;SDS011;9635;52.078;8.648;2024-03-25T02:28:10;22.88;;;5.70;;
19004;SDS011;9635;52.078;8.648;2024-03-25T02:33:11;20.73;;;4.03;;
19004;SDS011;9635;52.078;8.648;2024-03-25T02:38:12;18.45;;;4.63;;
19004;SDS011;9635;52.078;8.648;2024-03-25T02:43:14;23.73;;;4.20;;
19004;SDS011;9635;52.078;8.648;2024-03-25T02:48:15;14.68;;;3.92;;
19004;SDS011;9635;52.078;8.648;2024-03-25T02:53:16;20.67;;;4.10;;
19004;SDS011;9635;52.078;8.648;2024-03-25T02:58:16;17.70;;;4.00;;
19004;SDS011;9635;52.078;8.648;2024-03-25T03:03:17;18.92;;;3.80;;
19004;SDS011;9635;52.078;8.648;2024-03-25T03:08:18;18.15;;;3.60;;
19004;SDS011;9635;52.078;8.648;2024-03-25T03:13:19;13.48;;;3.45;;
19004;SDS011;9635;52.078;8.648;2024-03-25T03:18:19;19.13;;;5.28;;
19004;SDS011;9635;52.078;8.648;2024-03-25T03:23:20;20.77;;;4.30;;
19004;SDS011;9635;52.078;8.648;2024-03-25T03:28:21;19.75;;;4.53;;
19004;SDS011;9635;52.078;8.648;2024-03-25T03:33:22;16.73;;;4.88;;
19004;SDS011;9635;52.078;8.648;2024-03-25T03:38:22;20.67;;;5.18;;
19004;SDS011;9635;52.078;8.648;2024-03-25T03:43:23;17.83;;;4.35;;
19004;SDS011;9635;52.078;8.648;2024-03-25T03:48:24;21.33;;;4.78;;
19004;SDS011;9635;52.078;8.648;2024-03-25T03:53:25;27.20;;;4.95;;
19004;SDS011;9635;52.078;8.648;2024-03-25T03:58:26;25.58;;;4.65;;
19004;SDS011;9635;52.078;8.648;2024-03-25T04:03:26;30.73;;;6.13;;
19004;SDS011;9635;52.078;8.648;2024-03-25T04:08:27;22.67;;;3.95;;
19004;SDS011;9635;52.078;8.648;2024-03-25T04:13:28;23.92;;;5.00;;
19004;SDS011;9635;52.078;8.648;2024-03-25T04:18:29;21.98;;;4.63;;
19004;SDS011;9635;52.078;8.648;2024-03-25T04:23:31;28.42;;;5.25;;
19004;SDS011;9635;52.078;8.648;2024-03-25T04:28:31;13.98;;;3.75;;
19004;SDS011;9635;52.078;8.648;2024-03-25T04:33:32;16.60;;;5.03;;
19004;SDS011;9635;52.078;8.648;2024-03-25T04:38:33;24.38;;;5.25;;
19004;SDS011;9635;52.078;8.648;2024-03-25T04:43:34;26.70;;;6.03;;
19004;SDS011;9635;52.078;8.648;2024-03-25T04:48:35;24.13;;;4.50;;
19004;SDS011;9635;52.078;8.648;2024-03-25T04:53:36;24.27;;;4.50;;
19004;SDS011;9635;52.078;8.648;2024-03-25T04:58:36;21.52;;;4.93;;
19004;SDS011;9635;52.078;8.648;2024-03-25T05:03:37;19.30;;;4.80;;
19004;SDS011;9635;52.078;8.648;2024-03-25T05:08:38;23.55;;;4.70;;
19004;SDS011;9635;52.078;8.648;2024-03-25T05:13:39;15.02;;;3.95;;
19004;SDS011;9635;52.078;8.648;2024-03-25T05:18:39;25.35;;;4.93;;
19004;SDS011;9635;52.078;8.648;2024-03-25T05:23:40;22.48;;;5.00;;
19004;SDS011;9635;52.078;8.648;2024-03-25T05:28:41;22.15;;;4.22;;
19004;SDS011;9635;52.078;8.648;2024-03-25T05:33:42;18.83;;;4.25;;
19004;SDS011;9635;52.078;8.648;2024-03-25T05:38:43;20.17;;;4.22;;
19004;SDS011;9635;52.078;8.648;2024-03-25T05:43:44;23.45;;;4.70;;
19004;SDS011;9635;52.078;8.648;2024-03-25T05:48:45;22.80;;;5.97;;
19004;SDS011;9635;52.078;8.648;2024-03-25T05:53:45;26.27;;;6.78;;
19004;SDS011;9635;52.078;8.648;2024-03-25T05:58:46;23.70;;;4.10;;
19004;SDS011;9635;52.078;8.648;2024-03-25T06:03:47;25.95;;;5.45;;
19004;SDS011;9635;52.078;8.648;2024-03-25T06:08:48;21.27;;;4.88;;
19004;SDS011;9635;52.078;8.648;2024-03-25T06:13:50;25.63;;;5.72;;
19004;SDS011;9635;52.078;8.648;2024-03-25T06:18:52;21.07;;;4.17;;
19004;SDS011;9635;52.078;8.648;2024-03-25T06:23:53;20.23;;;5.10;;
19004;SDS011;9635;52.078;8.648;2024-03-25T06:28:53;26.48;;;4.50;;
19004;SDS011;9635;52.078;8.648;2024-03-25T06:33:54;21.73;;;5.13;;
19004;SDS011;9635;52.078;8.648;2024-03-25T06:39:17;15.30;;;3.58;;
19004;SDS011;9635;52.078;8.648;2024-03-25T06:44:18;23.23;;;4.90;;
19004;SDS011;9635;52.078;8.648;2024-03-25T06:49:19;24.83;;;4.70;;
19004;SDS011;9635;52.078;8.648;2024-03-25T06:54:20;14.43;;;4.00;;
19004;SDS011;9635;52.078;8.648;2024-03-25T06:59:21;20.20;;;4.78;;
19004;SDS011;9635;52.078;8.648;2024-03-25T07:04:22;17.92;;;4.13;;
19004;SDS011;9635;52.078;8.648;2024-03-25T07:09:22;21.00;;;5.38;;
19004;SDS011;9635;52.078;8.648;2024-03-25T07:14:24;22.80;;;4.03;;
19004;SDS011;9635;52.078;8.648;2024-03-25T07:19:25;21.77;;;4.65;;
19004;SDS011;9635;52.078;8.648;2024-03-25T07:24:26;23.58;;;5.15;;
19004;SDS011;9635;52.078;8.648;2024-03-25T07:29:27;24.67;;;5.72;;
19004;SDS011;9635;52.078;8.648;2024-03-25T07:34:27;18.27;;;4.60;;
19004;SDS011;9635;52.078;8.648;2024-03-25T07:39:28;23.85;;;5.85;;
19004;SDS011;9635;52.078;8.648;2024-03-25T07:44:29;13.65;;;5.00;;
19004;SDS011;9635;52.078;8.648;2024-03-25T07:49:31;24.48;;;5.60;;
19004;SDS011;9635;52.078;8.648;2024-03-25T07:54:34;20.13;;;5.90;;
19004;SDS011;9635;52.078;8.648;2024-03-25T07:59:37;25.30;;;6.65;;
19004;SDS011;9635;52.078;8.648;2024-03-25T08:04:37;16.10;;;5.07;;
19004;SDS011;9635;52.078;8.648;2024-03-25T08:09:38;24.10;;;5.15;;
19004;SDS011;9635;52.078;8.648;2024-03-25T08:20:24;21.45;;;5.68;;
19004;SDS011;9635;52.078;8.648;2024-03-25T08:25:25;27.20;;;6.03;;
19004;SDS011;9635;52.078;8.648;2024-03-25T08:30:26;19.58;;;4.78;;
19004;SDS011;9635;52.078;8.648;2024-03-25T08:35:27;20.88;;;5.60;;
19004;SDS011;9635;52.078;8.648;2024-03-25T08:40:28;20.17;;;5.22;;
19004;SDS011;9635;52.078;8.648;2024-03-25T08:45:28;15.68;;;4.50;;
19004;SDS011;9635;52.078;8.648;2024-03-25T08:50:29;13.13;;;4.13;;
19004;SDS011;9635;52.078;8.648;2024-03-25T08:55:30;21.25;;;5.05;;
19004;SDS011;9635;52.078;8.648;2024-03-25T09:00:31;13.35;;;3.35;;
19004;SDS011;9635;52.078;8.648;2024-03-25T09:05:32;19.38;;;4.32;;
19004;SDS011;9635;52.078;8.648;2024-03-25T09:10:34;18.17;;;4.37;;
19004;SDS011;9635;52.078;8.648;2024-03-25T09:15:53;13.90;;;3.30;;
19004;SDS011;9635;52.078;8.648;2024-03-25T09:20:54;16.35;;;3.75;;
19004;SDS011;9635;52.078;8.648;2024-03-25T09:25:55;12.47;;;3.27;;
19004;SDS011;9635;52.078;8.648;2024-03-25T09:30:56;18.35;;;3.30;;
19004;SDS011;9635;52.078;8.648;2024-03-25T09:35:58;15.40;;;3.50;;
19004;SDS011;9635;52.078;8.648;2024-03-25T09:40:59;18.13;;;4.33;;
19004;SDS011;9635;52.078;8.648;2024-03-25T09:46:00;21.05;;;4.72;;
19004;SDS011;9635;52.078;8.648;2024-03-25T09:51:01;19.38;;;4.22;;
19004;SDS011;9635;52.078;8.648;2024-03-25T09:56:03;16.33;;;3.88;;
19004;SDS011;9635;52.078;8.648;2024-03-25T10:01:04;14.02;;;2.60;;
19004;SDS011;9635;52.078;8.648;2024-03-25T10:06:05;12.57;;;2.75;;
19004;SDS011;9635;52.078;8.648;2024-03-25T10:11:08;12.75;;;2.88;;
19004;SDS011;9635;52.078;8.648;2024-03-25T10:16:09;16.05;;;2.60;;
19004;SDS011;9635;52.078;8.648;2024-03-25T10:21:10;17.55;;;2.20;;
19004;SDS011;9635;52.078;8.648;2024-03-25T10:26:23;11.18;;;3.13;;
19004;SDS011;9635;52.078;8.648;2024-03-25T10:31:26;11.13;;;3.67;;
19004;SDS011;9635;52.078;8.648;2024-03-25T10:36:27;15.60;;;4.03;;
19004;SDS011;9635;52.078;8.648;2024-03-25T10:41:28;11.17;;;3.80;;
19004;SDS011;9635;52.078;8.648;2024-03-25T10:46:30;19.27;;;4.57;;
19004;SDS011;9635;52.078;8.648;2024-03-25T10:51:31;16.35;;;6.05;;
19004;SDS011;9635;52.078;8.648;2024-03-25T10:56:33;8.30;;;2.83;;
19004;SDS011;9635;52.078;8.648;2024-03-25T11:01:34;5.70;;;2.30;;
19004;SDS011;9635;52.078;8.648;2024-03-25T11:06:36;7.70;;;1.80;;
19004;SDS011;9635;52.078;8.648;2024-03-25T11:11:38;6.75;;;2.63;;
19004;SDS011;9635;52.078;8.648;2024-03-25T11:16:38;9.18;;;1.90;;
19004;SDS011;9635;52.078;8.648;2024-03-25T11:21:39;15.30;;;2.58;;
19004;SDS011;9635;52.078;8.648;2024-03-25T11:26:40;7.15;;;1.83;;
19004;SDS011;9635;52.078;8.648;2024-03-25T11:31:42;4.25;;;1.30;;
19004;SDS011;9635;52.078;8.648;2024-03-25T11:36:44;6.13;;;1.17;;
19004;SDS011;9635;52.078;8.648;2024-03-25T11:41:44;3.20;;;1.45;;
19004;SDS011;9635;52.078;8.648;2024-03-25T11:46:45;5.00;;;1.63;;
19004;SDS011;9635;52.078;8.648;2024-03-25T11:51:46;7.95;;;2.35;;
19004;SDS011;9635;52.078;8.648;2024-03-25T11:56:47;6.90;;;2.28;;
19004;SDS011;9635;52.078;8.648;2024-03-25T12:01:48;8.82;;;2.38;;
19004;SDS011;9635;52.078;8.648;2024-03-25T12:06:49;13.45;;;2.92;;
19004;SDS011;9635;52.078;8.648;2024-03-25T12:11:49;6.65;;;2.10;;
19004;SDS011;9635;52.078;8.648;2024-03-25T12:16:51;7.83;;;2.57;;
19004;SDS011;9635;52.078;8.648;2024-03-25T12:22:00;8.73;;;3.03;;
19004;SDS011;9635;52.078;8.648;2024-03-25T12:27:01;6.25;;;2.70;;
19004;SDS011;9635;52.078;8.648;2024-03-25T12:32:03;7.10;;;2.17;;
19004;SDS011;9635;52.078;8.648;2024-03-25T12:37:04;13.32;;;2.30;;
19004;SDS011;9635;52.078;8.648;2024-03-25T12:42:05;6.10;;;2.03;;
19004;SDS011;9635;52.078;8.648;2024-03-25T12:47:07;10.02;;;2.20;;
19004;SDS011;9635;52.078;8.648;2024-03-25T12:52:07;8.68;;;2.15;;
19004;SDS011;9635;52.078;8.648;2024-03-25T12:57:08;6.25;;;1.95;;
19004;SDS011;9635;52.078;8.648;2024-03-25T13:02:10;7.75;;;2.05;;
19004;SDS011;9635;52.078;8.648;2024-03-25T13:07:12;6.18;;;2.30;;
19004;SDS011;9635;52.078;8.648;2024-03-25T13:12:13;5.95;;;2.00;;
19004;SDS011;9635;52.078;8.648;2024-03-25T13:17:14;9.07;;;1.80;;
19004;SDS011;9635;52.078;8.648;2024-03-25T13:22:15;6.72;;;1.60;;
19004;SDS011;9635;52.078;8.648;2024-03-25T13:27:16;4.22;;;1.70;;
19004;SDS011;9635;52.078;8.648;2024-03-25T13:32:17;8.88;;;1.95;;
19004;SDS011;9635;52.078;8.648;2024-03-25T13:37:18;7.13;;;2.03;;
19004;SDS011;9635;52.078;8.648;2024-03-25T13:42:19;5.93;;;2.08;;
19004;SDS011;9635;52.078;8.648;2024-03-25T13:47:19;6.05;;;1.60;;
19004;SDS011;9635;52.078;8.648;2024-03-25T13:52:21;6.93;;;2.05;;
19004;SDS011;9635;52.078;8.648;2024-03-25T13:57:21;7.93;;;2.75;;
19004;SDS011;9635;52.078;8.648;2024-03-25T14:02:23;9.57;;;2.37;;
19004;SDS011;9635;52.078;8.648;2024-03-25T14:07:24;7.78;;;2.30;;
19004;SDS011;9635;52.078;8.648;2024-03-25T14:12:25;6.38;;;1.67;;
19004;SDS011;9635;52.078;8.648;2024-03-25T14:17:25;4.47;;;1.30;;
19004;SDS011;9635;52.078;8.648;2024-03-25T14:22:26;6.85;;;1.52;;
19004;SDS011;9635;52.078;8.648;2024-03-25T14:27:27;10.57;;;1.65;;
19004;SDS011;9635;52.078;8.648;2024-03-25T14:32:27;6.38;;;1.70;;
19004;SDS011;9635;52.078;8.648;2024-03-25T14:37:28;3.20;;;1.50;;
19004;SDS011;9635;52.078;8.648;2024-03-25T14:42:29;6.97;;;1.73;;
19004;SDS011;9635;52.078;8.648;2024-03-25T14:47:31;7.33;;;1.90;;
19004;SDS011;9635;52.078;8.648;2024-03-25T14:52:31;6.85;;;1.75;;
19004;SDS011;9635;52.078;8.648;2024-03-25T14:57:32;5.38;;;1.70;;
19004;SDS011;9635;52.078;8.648;2024-03-25T15:02:33;9.93;;;1.73;;
19004;SDS011;9635;52.078;8.648;2024-03-25T15:07:34;9.30;;;2.03;;
19004;SDS011;9635;52.078;8.648;2024-03-25T15:12:34;6.32;;;1.73;;
19004;SDS011;9635;52.078;8.648;2024-03-25T15:17:35;9.07;;;2.33;;
19004;SDS011;9635;52.078;8.648;2024-03-25T15:22:36;7.15;;;2.00;;
19004;SDS011;9635;52.078;8.648;2024-03-25T15:32:39;8.00;;;1.75;;
19004;SDS011;9635;52.078;8.648;2024-03-25T15:37:40;6.35;;;1.63;;
19004;SDS011;9635;52.078;8.648;2024-03-25T15:42:41;3.42;;;1.30;;
19004;SDS011;9635;52.078;8.648;2024-03-25T15:47:42;5.57;;;1.50;;
19004;SDS011;9635;52.078;8.648;2024-03-25T15:52:43;4.03;;;1.17;;
19004;SDS011;9635;52.078;8.648;2024-03-25T15:57:43;7.43;;;1.90;;
19004;SDS011;9635;52.078;8.648;2024-03-25T16:02:44;5.40;;;1.83;;
19004;SDS011;9635;52.078;8.648;2024-03-25T16:07:48;5.38;;;1.42;;
19004;SDS011;9635;52.078;8.648;2024-03-25T16:12:49;5.70;;;1.42;;
19004;SDS011;9635;52.078;8.648;2024-03-25T16:17:50;7.80;;;1.70;;
19004;SDS011;9635;52.078;8.648;2024-03-25T16:22:50;5.95;;;2.20;;
19004;SDS011;9635;52.078;8.648;2024-03-25T16:27:51;5.65;;;1.58;;
19004;SDS011;9635;52.078;8.648;2024-03-25T16:32:52;7.40;;;2.40;;
19004;SDS011;9635;52.078;8.648;2024-03-25T16:37:53;7.80;;;2.10;;
19004;SDS011;9635;52.078;8.648;2024-03-25T16:42:54;6.03;;;1.92;;
19004;SDS011;9635;52.078;8.648;2024-03-25T16:47:55;10.07;;;1.83;;
19004;SDS011;9635;52.078;8.648;2024-03-25T16:52:56;7.55;;;1.70;;
19004;SDS011;9635;52.078;8.648;2024-03-25T16:57:58;6.63;;;1.63;;
19004;SDS011;9635;52.078;8.648;2024-03-25T17:02:58;7.05;;;1.45;;
19004;SDS011;9635;52.078;8.648;2024-03-25T17:07:59;8.93;;;3.25;;
19004;SDS011;9635;52.078;8.648;2024-03-25T17:13:00;3.08;;;1.80;;
19004;SDS011;9635;52.078;8.648;2024-03-25T17:18:02;10.20;;;1.80;;
19004;SDS011;9635;52.078;8.648;2024-03-25T17:23:08;6.82;;;1.90;;
19004;SDS011;9635;52.078;8.648;2024-03-25T17:28:09;4.72;;;2.25;;
19004;SDS011;9635;52.078;8.648;2024-03-25T17:33:10;8.80;;;3.40;;
19004;SDS011;9635;52.078;8.648;2024-03-25T17:38:11;6.47;;;3.30;;
19004;SDS011;9635;52.078;8.648;2024-03-25T17:43:11;14.77;;;8.13;;
19004;SDS011;9635;52.078;8.648;2024-03-25T17:48:12;8.80;;;5.10;;
19004;SDS011;9635;52.078;8.648;2024-03-25T17:53:13;10.65;;;4.45;;
19004;SDS011;9635;52.078;8.648;2024-03-25T17:58:14;9.43;;;3.22;;
19004;SDS011;9635;52.078;8.648;2024-03-25T18:03:17;11.02;;;5.55;;
19004;SDS011;9635;52.078;8.648;2024-03-25T18:08:18;10.77;;;4.10;;
19004;SDS011;9635;52.078;8.648;2024-03-25T18:13:19;7.72;;;3.97;;
19004;SDS011;9635;52.078;8.648;2024-03-25T18:18:20;14.38;;;7.18;;
19004;SDS011;9635;52.078;8.648;2024-03-25T18:23:22;17.80;;;11.60;;
19004;SDS011;9635;52.078;8.648;2024-03-25T18:28:23;8.35;;;5.50;;
19004;SDS011;9635;52.078;8.648;2024-03-25T18:33:23;9.30;;;5.18;;
19004;SDS011;9635;52.078;8.648;2024-03-25T18:38:24;12.80;;;5.43;;
19004;SDS011;9635;52.078;8.648;2024-03-25T18:43:25;10.57;;;4.35;;
19004;SDS011;9635;52.078;8.648;2024-03-25T18:48:26;10.15;;;3.63;;
19004;SDS011;9635;52.078;8.648;2024-03-25T18:53:27;9.38;;;3.97;;
19004;SDS011;9635;52.078;8.648;2024-03-25T18:58:27;10.50;;;3.60;;
19004;SDS011;9635;52.078;8.648;2024-03-25T19:03:28;5.70;;;3.20;;
19004;SDS011;9635;52.078;8.648;2024-03-25T19:08:29;10.00;;;4.07;;
19004;SDS011;9635;52.078;8.648;2024-03-25T19:13:30;15.63;;;4.95;;
19004;SDS011;9635;52.078;8.648;2024-03-25T19:18:31;14.18;;;4.70;;
19004;SDS011;9635;52.078;8.648;2024-03-25T19:23:32;11.73;;;4.35;;
19004;SDS011;9635;52.078;8.648;2024-03-25T19:28:33;11.02;;;4.38;;
19004;SDS011;9635;52.078;8.648;2024-03-25T19:33:34;10.85;;;4.30;;
19004;SDS011;9635;52.078;8.648;2024-03-25T19:38:35;8.05;;;5.00;;
19004;SDS011;9635;52.078;8.648;2024-03-25T19:43:36;10.68;;;4.18;;
19004;SDS011;9635;52.078;8.648;2024-03-25T19:48:37;7.63;;;4.10;;
19004;SDS011;9635;52.078;8.648;2024-03-25T19:53:38;9.10;;;4.63;;
19004;SDS011;9635;52.078;8.648;2024-03-25T19:58:39;10.07;;;4.70;;
19004;SDS011;9635;52.078;8.648;2024-03-25T20:03:39;9.80;;;5.40;;
19004;SDS011;9635;52.078;8.648;2024-03-25T20:08:40;9.82;;;5.10;;
19004;SDS011;9635;52.078;8.648;2024-03-25T20:13:41;15.98;;;5.97;;
19004;SDS011;9635;52.078;8.648;2024-03-25T20:18:42;9.82;;;5.20;;
19004;SDS011;9635;52.078;8.648;2024-03-25T20:23:42;15.63;;;7.90;;
19004;SDS011;9635;52.078;8.648;2024-03-25T20:28:44;12.95;;;5.00;;
19004;SDS011;9635;52.078;8.648;2024-03-25T20:33:45;11.17;;;4.93;;
19004;SDS011;9635;52.078;8.648;2024-03-25T20:38:46;16.33;;;4.57;;
19004;SDS011;9635;52.078;8.648;2024-03-25T20:43:47;13.10;;;4.85;;
19004;SDS011;9635;52.078;8.648;2024-03-25T20:48:48;12.13;;;6.20;;
19004;SDS011;9635;52.078;8.648;2024-03-25T20:53:49;10.90;;;5.55;;
19004;SDS011;9635;52.078;8.648;2024-03-25T20:58:50;12.68;;;5.55;;
19004;SDS011;9635;52.078;8.648;2024-03-25T21:03:51;14.88;;;5.85;;
19004;SDS011;9635;52.078;8.648;2024-03-25T21:08:53;14.60;;;5.93;;
19004;SDS011;9635;52.078;8.648;2024-03-25T21:13:53;9.02;;;4.53;;
19004;SDS011;9635;52.078;8.648;2024-03-25T21:18:54;12.45;;;4.88;;
19004;SDS011;9635;52.078;8.648;2024-03-25T21:23:55;8.00;;;4.75;;
19004;SDS011;9635;52.078;8.648;2024-03-25T21:28:56;14.85;;;4.30;;
19004;SDS011;9635;52.078;8.648;2024-03-25T21:33:57;13.43;;;4.70;;
19004;SDS011;9635;52.078;8.648;2024-03-25T21:38:58;12.32;;;4.50;;
19004;SDS011;9635;52.078;8.648;2024-03-25T21:44:03;11.52;;;4.68;;
19004;SDS011;9635;52.078;8.648;2024-03-25T21:49:05;10.00;;;3.90;;
19004;SDS011;9635;52.078;8.648;2024-03-25T21:54:05;9.10;;;4.57;;
19004;SDS011;9635;52.078;8.648;2024-03-25T21:59:06;10.40;;;3.97;;
19004;SDS011;9635;52.078;8.648;2024-03-25T22:04:07;8.45;;;4.18;;
19004;SDS011;9635;52.078;8.648;2024-03-25T22:09:08;11.57;;;3.85;;
19004;SDS011;9635;52.078;8.648;2024-03-25T22:14:09;7.55;;;4.22;;
19004;SDS011;9635;52.078;8.648;2024-03-25T22:19:09;11.70;;;4.10;;
19004;SDS011;9635;52.078;8.648;2024-03-25T22:24:10;9.50;;;3.92;;
19004;SDS011;9635;52.078;8.648;2024-03-25T22:29:11;9.88;;;4.35;;
19004;SDS011;9635;52.078;8.648;2024-03-25T22:34:13;10.88;;;4.28;;
19004;SDS011;9635;52.078;8.648;2024-03-25T22:39:14;10.90;;;4.93;;
19004;SDS011;9635;52.078;8.648;2024-03-25T22:44:14;10.55;;;4.47;;
19004;SDS011;9635;52.078;8.648;2024-03-25T22:49:15;10.65;;;4.25;;
19004;SDS011;9635;52.078;8.648;2024-03-25T22:54:16;6.60;;;4.25;;
19004;SDS011;9635;52.078;8.648;2024-03-25T22:59:16;7.32;;;3.97;;
19004;SDS011;9635;52.078;8.648;2024-03-25T23:04:17;11.27;;;4.53;;
19004;SDS011;9635;52.078;8.648;2024-03-25T23:09:18;9.80;;;4.30;;
19004;SDS011;9635;52.078;8.648;2024-03-25T23:14:19;14.07;;;4.72;;
19004;SDS011;9635;52.078;8.648;2024-03-25T23:19:20;13.38;;;6.20;;
19004;SDS011;9635;52.078;8.648;2024-03-25T23:24:21;16.00;;;7.43;;
19004;SDS011;9635;52.078;8.648;2024-03-25T23:29:21;10.18;;;5.50;;
19004;SDS011;9635;52.078;8.648;2024-03-25T23:34:22;13.73;;;5.88;;
19004;SDS011;9635;52.078;8.648;2024-03-25T23:39:23;12.10;;;5.15;;
19004;SDS011;9635;52.078;8.648;2024-03-25T23:44:24;16.77;;;5.20;;
19004;SDS011;9635;52.078;8.648;2024-03-25T23:49:29;6.75;;;4.35;;
19004;SDS011;9635;52.078;8.648;2024-03-25T23:54:30;10.45;;;4.57;;
19004;SDS011;9635;52.078;8.648;2024-03-25T23:59:31;17.73;;;5.32;;
